Time;durP1;ratioP1;P1;durP2;ratioP2;P2;SDS_P1;SDS_P2;PMS_P1;PMS_P2;Temp;Humidity;BMP_temperature;BMP_pressure;BME280_temperature;BME280_humidity;BME280_pressure;Samples;Min_cycle;Max_cycle;Signal;HPM_P1;HPM_P2
2023/07/08 00:01:37;;;;;;;26.05;15.18;;;;;;;;;;6324595;28;20059;-60
2023/07/08 00:04:39;;;;;;;23.83;14.15;;;;;;;;;;6343477;28;20074;-61
2023/07/08 00:07:41;;;;;;;34.67;15.65;;;;;;;;;;6342876;28;20047;-61
2023/07/08 00:10:41;;;;;;;24.15;14.07;;;;;;;;;;6342657;28;20052;-61
2023/07/08 00:13:42;;;;;;;26.75;14.75;;;;;;;;;;6343095;28;20058;-61
2023/07/08 00:16:43;;;;;;;27.45;14.85;;;;;;;;;;6342953;28;20051;-61
2023/07/08 00:19:43;;;;;;;24.02;15.02;;;;;;;;;;6341603;28;20497;-61
2023/07/08 00:22:46;;;;;;;27.35;14.95;;;;;;;;;;6342884;28;20040;-60
2023/07/08 00:25:47;;;;;;;25.83;14.82;;;;;;;;;;6342948;28;20043;-61
2023/07/08 00:28:49;;;;;;;25.10;14.60;;;;;;;;;;6341465;28;20039;-61
2023/07/08 00:31:49;;;;;;;24.23;15.47;;;;;;;;;;6342239;28;20489;-60
2023/07/08 00:34:50;;;;;;;25.38;14.60;;;;;;;;;;6342515;28;20311;-61
2023/07/08 00:38:01;;;;;;;32.35;16.00;;;;;;;;;;6341963;28;20055;-61
2023/07/08 00:41:01;;;;;;;25.08;14.73;;;;;;;;;;6341758;28;20077;-61
2023/07/08 00:44:02;;;;;;;25.30;15.68;;;;;;;;;;6342781;28;20525;-61
2023/07/08 00:47:09;;;;;;;22.35;14.75;;;;;;;;;;6342212;28;20051;-61
2023/07/08 00:50:11;;;;;;;24.83;15.20;;;;;;;;;;6340943;28;20055;-61
2023/07/08 00:53:31;;;;;;;25.63;14.35;;;;;;;;;;6342338;28;20048;-61
2023/07/08 00:56:38;;;;;;;29.77;17.08;;;;;;;;;;6342123;28;20104;-61
2023/07/08 00:59:47;;;;;;;31.42;17.70;;;;;;;;;;6342207;28;20043;-61
2023/07/08 01:02:54;;;;;;;29.15;17.25;;;;;;;;;;6340475;28;20051;-61
2023/07/08 01:05:59;;;;;;;29.20;15.60;;;;;;;;;;6342143;28;20127;-61
2023/07/08 01:09:02;;;;;;;25.90;14.77;;;;;;;;;;6341330;28;20483;-61
2023/07/08 01:12:07;;;;;;;26.77;16.52;;;;;;;;;;6341150;28;20467;-61
2023/07/08 01:15:09;;;;;;;29.02;16.02;;;;;;;;;;6341117;28;20391;-61
2023/07/08 01:18:16;;;;;;;30.13;16.20;;;;;;;;;;6342231;28;20071;-60
2023/07/08 01:21:33;;;;;;;27.00;16.27;;;;;;;;;;6341807;28;20067;-61
2023/07/08 01:24:38;;;;;;;27.75;16.52;;;;;;;;;;6340377;28;20052;-60
2023/07/08 01:27:43;;;;;;;28.83;16.13;;;;;;;;;;6341834;28;20052;-61
2023/07/08 01:30:45;;;;;;;28.55;17.55;;;;;;;;;;6341799;28;20460;-61
2023/07/08 01:33:46;;;;;;;31.67;17.42;;;;;;;;;;6340948;28;20078;-61
2023/07/08 01:36:54;;;;;;;33.40;17.23;;;;;;;;;;6340986;28;20044;-60
2023/07/08 01:39:54;;;;;;;29.40;16.63;;;;;;;;;;6341895;28;20073;-61
2023/07/08 01:42:55;;;;;;;31.65;16.88;;;;;;;;;;6342274;28;20138;-60
2023/07/08 01:46:00;;;;;;;32.33;16.58;;;;;;;;;;6340667;28;20482;-60
2023/07/08 01:49:01;;;;;;;33.10;18.02;;;;;;;;;;6341667;28;20531;-61
2023/07/08 01:52:02;;;;;;;29.60;17.23;;;;;;;;;;6341619;28;20059;-60
2023/07/08 01:55:04;;;;;;;30.03;16.40;;;;;;;;;;6340106;28;20062;-61
2023/07/08 01:58:04;;;;;;;30.70;17.50;;;;;;;;;;6341657;28;20480;-61
2023/07/08 02:01:06;;;;;;;31.27;17.77;;;;;;;;;;6341901;28;20055;-61
2023/07/08 02:04:06;;;;;;;32.77;17.37;;;;;;;;;;6341304;28;20039;-60
2023/07/08 02:07:07;;;;;;;29.15;17.30;;;;;;;;;;6341971;28;20406;-60
2023/07/08 02:10:08;;;;;;;37.70;18.70;;;;;;;;;;6346275;28;20046;-60
2023/07/08 02:13:09;;;;;;;33.75;19.05;;;;;;;;;;6346071;28;20138;-60
2023/07/08 02:16:09;;;;;;;33.90;19.10;;;;;;;;;;6344360;28;20054;-60
2023/07/08 02:19:11;;;;;;;36.40;20.02;;;;;;;;;;6345822;28;20063;-61
2023/07/08 02:22:12;;;;;;;34.20;19.63;;;;;;;;;;6346218;28;20043;-60
2023/07/08 02:25:13;;;;;;;32.67;18.23;;;;;;;;;;6344587;28;20750;-60
2023/07/08 02:28:13;;;;;;;31.67;18.80;;;;;;;;;;6345528;28;20044;-60
2023/07/08 02:31:14;;;;;;;34.97;19.90;;;;;;;;;;6345840;28;20058;-60
2023/07/08 02:34:14;;;;;;;35.30;19.13;;;;;;;;;;6344721;28;20381;-60
2023/07/08 02:37:15;;;;;;;29.90;18.10;;;;;;;;;;6344825;28;20048;-60
2023/07/08 02:40:16;;;;;;;36.47;20.17;;;;;;;;;;6345687;28;20502;-61
2023/07/08 02:43:16;;;;;;;37.67;19.95;;;;;;;;;;6345338;28;20141;-61
2023/07/08 02:46:17;;;;;;;34.40;19.55;;;;;;;;;;6343926;28;20101;-60
2023/07/08 02:49:17;;;;;;;36.25;18.60;;;;;;;;;;6345079;28;20828;-61
2023/07/08 02:52:18;;;;;;;37.85;20.95;;;;;;;;;;6345152;28;20137;-60
2023/07/08 02:55:19;;;;;;;33.03;19.17;;;;;;;;;;6343623;28;20533;-61
2023/07/08 02:58:19;;;;;;;34.65;20.10;;;;;;;;;;6345242;28;20058;-61
2023/07/08 03:01:20;;;;;;;35.90;20.02;;;;;;;;;;6344981;28;20047;-61
2023/07/08 03:04:21;;;;;;;38.05;21.33;;;;;;;;;;6343954;28;20421;-61
2023/07/08 03:07:22;;;;;;;39.22;20.25;;;;;;;;;;6344302;28;20501;-60
2023/07/08 03:10:23;;;;;;;42.42;21.65;;;;;;;;;;6344776;28;20047;-61
2023/07/08 03:13:24;;;;;;;38.10;22.27;;;;;;;;;;6344800;28;20052;-60
2023/07/08 03:16:25;;;;;;;40.85;21.25;;;;;;;;;;6343170;28;20044;-61
2023/07/08 03:19:26;;;;;;;36.47;21.33;;;;;;;;;;6344619;28;20070;-60
2023/07/08 03:22:26;;;;;;;37.63;20.92;;;;;;;;;;6344320;28;20471;-60
2023/07/08 03:25:27;;;;;;;37.30;20.55;;;;;;;;;;6343081;28;20142;-60
2023/07/08 03:28:27;;;;;;;38.85;21.52;;;;;;;;;;6344372;28;20052;-60
2023/07/08 03:31:28;;;;;;;39.47;20.25;;;;;;;;;;6343987;28;20079;-60
2023/07/08 03:34:29;;;;;;;39.10;20.30;;;;;;;;;;6343159;28;20093;-60
2023/07/08 03:37:29;;;;;;;38.55;20.33;;;;;;;;;;6343562;28;20047;-60
2023/07/08 03:40:31;;;;;;;39.63;21.20;;;;;;;;;;6344566;28;20048;-60
2023/07/08 03:43:32;;;;;;;40.20;21.40;;;;;;;;;;6344294;28;20112;-60
2023/07/08 03:46:32;;;;;;;39.90;21.30;;;;;;;;;;6343039;28;20052;-60
2023/07/08 03:49:33;;;;;;;40.33;20.92;;;;;;;;;;6343598;28;20051;-61
2023/07/08 03:52:33;;;;;;;39.33;22.35;;;;;;;;;;6344011;28;20054;-61
2023/07/08 03:55:34;;;;;;;38.72;21.65;;;;;;;;;;6342364;28;20454;-60
2023/07/08 03:58:34;;;;;;;40.67;21.77;;;;;;;;;;6343508;28;20127;-60
2023/07/08 04:01:35;;;;;;;42.00;21.50;;;;;;;;;;6343177;28;20048;-61
2023/07/08 04:04:37;;;;;;;41.65;22.35;;;;;;;;;;6342040;28;20043;-60
2023/07/08 04:07:38;;;;;;;52.70;25.13;;;;;;;;;;6343038;28;20432;-61
2023/07/08 04:10:38;;;;;;;37.15;22.00;;;;;;;;;;6343241;28;20138;-61
2023/07/08 04:13:39;;;;;;;47.10;23.17;;;;;;;;;;6342984;28;20104;-60
2023/07/08 04:16:58;;;;;;;44.63;22.55;;;;;;;;;;6341927;28;20482;-60
2023/07/08 04:20:03;;;;;;;41.13;21.70;;;;;;;;;;6343093;28;20122;-61
2023/07/08 04:23:04;;;;;;;42.75;22.88;;;;;;;;;;6343443;28;20051;-60
2023/07/08 04:26:04;;;;;;;44.38;23.75;;;;;;;;;;6341964;28;20401;-61
2023/07/08 04:29:21;;;;;;;41.60;22.42;;;;;;;;;;6342583;28;20048;-60
2023/07/08 04:32:24;;;;;;;49.75;24.38;;;;;;;;;;6342959;28;20047;-60
2023/07/08 04:35:25;;;;;;;50.35;26.15;;;;;;;;;;6342842;28;20079;-60
2023/07/08 04:38:26;;;;;;;52.53;25.42;;;;;;;;;;6341087;28;20057;-60
2023/07/08 04:41:26;;;;;;;50.30;27.27;;;;;;;;;;6342818;28;20077;-61
2023/07/08 04:44:27;;;;;;;51.28;26.90;;;;;;;;;;6342372;28;20158;-60
2023/07/08 04:47:29;;;;;;;55.10;27.00;;;;;;;;;;6341490;28;20051;-60
2023/07/08 04:50:30;;;;;;;72.28;31.20;;;;;;;;;;6342242;28;20240;-60
2023/07/08 04:53:30;;;;;;;62.97;32.07;;;;;;;;;;6343052;28;20112;-61
2023/07/08 04:56:38;;;;;;;62.30;30.37;;;;;;;;;;6341815;28;20035;-61
2023/07/08 04:59:39;;;;;;;79.60;38.22;;;;;;;;;;6341319;28;20043;-60
2023/07/08 05:02:40;;;;;;;74.00;37.47;;;;;;;;;;6342094;28;20135;-60
2023/07/08 05:05:41;;;;;;;74.68;36.42;;;;;;;;;;6342217;28;20054;-61
2023/07/08 05:08:41;;;;;;;74.97;36.10;;;;;;;;;;6340749;28;20047;-60
2023/07/08 05:11:42;;;;;;;68.80;35.65;;;;;;;;;;6342500;28;20829;-60
2023/07/08 05:14:42;;;;;;;70.88;36.63;;;;;;;;;;6342063;28;20485;-60
2023/07/08 05:17:43;;;;;;;72.97;37.03;;;;;;;;;;6340564;28;20062;-61
2023/07/08 05:20:50;;;;;;;67.95;35.33;;;;;;;;;;6342039;28;20134;-60
2023/07/08 05:23:51;;;;;;;73.25;35.58;;;;;;;;;;6341967;28;20043;-61
2023/07/08 05:26:51;;;;;;;61.43;33.87;;;;;;;;;;6341441;28;20474;-60
2023/07/08 05:29:53;;;;;;;64.40;31.93;;;;;;;;;;6341151;28;20058;-60
2023/07/08 05:32:53;;;;;;;59.70;32.20;;;;;;;;;;6341846;28;20048;-60
2023/07/08 05:35:54;;;;;;;62.13;31.20;;;;;;;;;;6341970;28;20050;-60
2023/07/08 05:38:56;;;;;;;52.73;28.67;;;;;;;;;;6340365;28;20478;-60
2023/07/08 05:41:56;;;;;;;53.92;27.27;;;;;;;;;;6344987;28;20044;-60
2023/07/08 05:44:57;;;;;;;56.37;25.93;;;;;;;;;;6347077;28;20054;-60
2023/07/08 05:47:58;;;;;;;44.90;23.97;;;;;;;;;;6345245;28;20044;-60
2023/07/08 05:50:58;;;;;;;47.17;21.83;;;;;;;;;;6346346;28;20040;-60
2023/07/08 05:53:59;;;;;;;37.47;20.03;;;;;;;;;;6346734;28;20047;-60
2023/07/08 05:56:59;;;;;;;39.77;21.00;;;;;;;;;;6345949;28;20094;-61
2023/07/08 06:00:00;;;;;;;38.40;20.97;;;;;;;;;;6345638;28;20055;-60
2023/07/08 06:03:01;;;;;;;46.80;22.03;;;;;;;;;;6346036;28;20082;-60
2023/07/08 06:06:02;;;;;;;42.70;20.33;;;;;;;;;;6346512;28;20051;-60
2023/07/08 06:09:03;;;;;;;47.15;22.67;;;;;;;;;;6344965;28;20047;-60
2023/07/08 06:12:04;;;;;;;44.45;23.15;;;;;;;;;;6346134;28;20134;-61
2023/07/08 06:15:05;;;;;;;48.70;22.00;;;;;;;;;;6346928;28;20051;-61
2023/07/08 06:18:06;;;;;;;44.83;21.50;;;;;;;;;;6344856;28;20055;-60
2023/07/08 06:21:07;;;;;;;38.43;20.50;;;;;;;;;;6345800;28;20054;-61
2023/07/08 06:24:07;;;;;;;44.17;21.40;;;;;;;;;;6345936;28;20503;-61
2023/07/08 06:27:09;;;;;;;39.37;21.17;;;;;;;;;;6344902;28;20475;-61
2023/07/08 06:30:10;;;;;;;;;;;;;;;;;;6345629;28;20096;-60
2023/07/08 06:33:11;;;;;;;39.47;21.83;;;;;;;;;;6345514;28;20425;-61
2023/07/08 06:36:12;;;;;;;46.05;21.98;;;;;;;;;;6345270;28;20142;-61
2023/07/08 06:39:13;;;;;;;43.70;21.37;;;;;;;;;;6344316;28;20044;-60
2023/07/08 06:42:13;;;;;;;41.90;22.73;;;;;;;;;;6346046;28;20052;-61
2023/07/08 06:45:14;;;;;;;39.40;19.97;;;;;;;;;;6345375;28;20040;-61
2023/07/08 06:48:15;;;;;;;38.83;20.47;;;;;;;;;;6344116;28;20040;-60
2023/07/08 06:51:15;;;;;;;47.53;23.73;;;;;;;;;;6345283;28;20062;-60
2023/07/08 06:54:16;;;;;;;37.20;18.50;;;;;;;;;;6344353;28;20300;-61
2023/07/08 06:57:17;;;;;;;34.87;18.70;;;;;;;;;;6344169;28;20043;-61
2023/07/08 07:00:17;;;;;;;34.47;18.20;;;;;;;;;;6344453;28;20050;-61
2023/07/08 07:03:18;;;;;;;41.07;19.47;;;;;;;;;;6344943;28;20059;-61
2023/07/08 07:06:19;;;;;;;35.30;19.60;;;;;;;;;;6344383;28;20044;-61
2023/07/08 07:09:19;;;;;;;38.30;20.10;;;;;;;;;;6343719;28;20044;-61
2023/07/08 07:12:20;;;;;;;43.77;20.40;;;;;;;;;;6344723;28;20047;-61
2023/07/08 07:15:21;;;;;;;42.17;21.43;;;;;;;;;;6344780;28;20066;-61
2023/07/08 07:18:21;;;;;;;35.30;21.20;;;;;;;;;;6343908;28;20043;-60
2023/07/08 07:21:22;;;;;;;28.13;15.73;;;;;;;;;;6344408;28;20392;-60
2023/07/08 07:24:22;;;;;;;27.03;15.53;;;;;;;;;;6344412;28;20032;-61
2023/07/08 07:27:23;;;;;;;29.73;16.20;;;;;;;;;;6342990;28;20138;-61
2023/07/08 07:30:23;;;;;;;37.60;17.97;;;;;;;;;;6344036;28;20413;-60
2023/07/08 07:33:24;;;;;;;39.00;20.00;;;;;;;;;;6344258;28;20047;-61
2023/07/08 07:36:25;;;;;;;32.80;18.57;;;;;;;;;;6343324;28;20100;-61
2023/07/08 07:39:28;;;;;;;34.35;17.33;;;;;;;;;;6343193;28;20054;-61
2023/07/08 07:42:28;;;;;;;33.47;16.75;;;;;;;;;;6325550;28;20418;-61
2023/07/08 07:45:29;;;;;;;35.20;16.67;;;;;;;;;;6344299;28;20127;-61
2023/07/08 07:48:30;;;;;;;30.90;16.37;;;;;;;;;;6342362;28;20417;-61
2023/07/08 07:51:30;;;;;;;30.27;16.37;;;;;;;;;;6343943;28;20043;-61
2023/07/08 07:54:31;;;;;;;31.33;16.23;;;;;;;;;;6343802;28;20040;-61
2023/07/08 07:57:31;;;;;;;33.03;16.97;;;;;;;;;;6342564;28;20040;-61
2023/07/08 08:00:32;;;;;;;32.47;16.87;;;;;;;;;;6343552;28;20099;-61
2023/07/08 08:03:33;;;;;;;32.23;17.80;;;;;;;;;;6343293;28;20052;-61
2023/07/08 08:06:34;;;;;;;29.93;17.30;;;;;;;;;;6342124;28;20050;-61
2023/07/08 08:09:34;;;;;;;30.25;17.00;;;;;;;;;;6342421;28;20051;-61
2023/07/08 08:12:35;;;;;;;25.70;15.37;;;;;;;;;;6343461;28;20058;-61
2023/07/08 08:15:36;;;;;;;26.90;17.20;;;;;;;;;;6342778;28;20057;-61
2023/07/08 08:18:36;;;;;;;30.97;16.47;;;;;;;;;;6341693;28;20047;-62
2023/07/08 08:21:37;;;;;;;24.63;15.47;;;;;;;;;;6342971;28;20134;-61
2023/07/08 08:24:37;;;;;;;23.53;14.67;;;;;;;;;;6342829;28;20043;-61
2023/07/08 08:27:38;;;;;;;29.37;15.33;;;;;;;;;;6341429;28;20055;-61
2023/07/08 08:30:38;;;;;;;24.30;14.37;;;;;;;;;;6342713;28;20039;-61
2023/07/08 08:33:39;;;;;;;26.90;16.17;;;;;;;;;;6342776;28;20047;-61
2023/07/08 08:36:40;;;;;;;24.27;14.20;;;;;;;;;;6341652;28;20308;-61
2023/07/08 08:39:40;;;;;;;25.47;12.33;;;;;;;;;;6342264;28;20046;-61
2023/07/08 08:42:46;;;;;;;22.20;13.73;;;;;;;;;;6342883;28;20047;-61
2023/07/08 08:46:04;;;;;;;19.83;12.35;;;;;;;;;;6342821;28;20455;-61
2023/07/08 08:49:22;;;;;;;22.05;12.05;;;;;;;;;;6340916;28;20056;-61
2023/07/08 08:52:23;;;;;;;22.40;11.32;;;;;;;;;;6342230;28;20051;-61
2023/07/08 08:55:24;;;;;;;14.00;8.67;;;;;;;;;;6342146;28;20066;-61
2023/07/08 08:58:30;;;;;;;17.48;8.65;;;;;;;;;;6341958;28;20040;-61
2023/07/08 09:01:31;;;;;;;13.38;8.32;;;;;;;;;;6340623;28;20902;-61
2023/07/08 09:04:35;;;;;;;11.50;8.13;;;;;;;;;;6342173;28;20047;-61
2023/07/08 09:08:08;;;;;;;13.93;7.15;;;;;;;;;;6342167;28;20287;-61
2023/07/08 09:11:33;;;;;;;15.13;8.32;;;;;;;;;;6341082;28;20040;-62
2023/07/08 09:14:34;;;;;;;15.57;8.80;;;;;;;;;;6341050;28;20102;-61
2023/07/08 09:17:35;;;;;;;;;;;;;;;;;;6342371;28;20131;-61
2023/07/08 09:20:36;;;;;;;15.30;9.30;;;;;;;;;;6341844;28;19931;-61
2023/07/08 09:23:37;;;;;;;14.50;9.63;;;;;;;;;;6341261;28;20054;-62
2023/07/08 09:26:40;;;;;;;23.83;10.32;;;;;;;;;;6341703;28;20043;-61
2023/07/08 09:29:41;;;;;;;14.30;9.40;;;;;;;;;;6342151;28;20058;-61
2023/07/08 09:32:42;;;;;;;14.33;9.03;;;;;;;;;;6341650;28;20466;-61
2023/07/08 09:35:46;;;;;;;13.68;9.13;;;;;;;;;;6341067;28;20046;-61
2023/07/08 09:38:48;;;;;;;15.15;8.82;;;;;;;;;;6341961;28;20047;-61
2023/07/08 09:41:49;;;;;;;16.65;8.80;;;;;;;;;;6341570;28;20057;-61
2023/07/08 09:44:55;;;;;;;13.30;8.73;;;;;;;;;;6340974;28;20040;-61
2023/07/08 09:47:56;;;;;;;13.15;8.35;;;;;;;;;;6341606;28;20534;-61
2023/07/08 09:50:58;;;;;;;14.52;8.57;;;;;;;;;;6341674;28;20048;-61
2023/07/08 09:53:58;;;;;;;;;;;;;;;;;;6341140;28;20130;-61
2023/07/08 09:57:04;;;;;;;14.17;8.40;;;;;;;;;;6341664;28;20289;-61
2023/07/08 10:00:12;;;;;;;15.82;7.85;;;;;;;;;;6341597;28;20096;-61
2023/07/08 10:03:20;;;;;;;12.63;8.18;;;;;;;;;;6340879;28;20517;-61
2023/07/08 10:06:25;;;;;;;16.23;10.52;;;;;;;;;;6340116;28;20078;-61
2023/07/08 10:09:26;;;;;;;15.18;8.48;;;;;;;;;;6341346;28;20402;-61
2023/07/08 10:12:28;;;;;;;17.17;8.20;;;;;;;;;;6341766;28;20130;-61
2023/07/08 10:15:41;;;;;;;13.27;7.53;;;;;;;;;;6340229;28;20300;-61
2023/07/08 10:18:41;;;;;;;14.80;8.32;;;;;;;;;;6341061;28;20048;-61
2023/07/08 10:21:55;;;;;;;12.53;7.40;;;;;;;;;;6341065;28;20058;-61
2023/07/08 10:25:34;;;;;;;13.50;7.47;;;;;;;;;;6341361;28;20050;-61
2023/07/08 10:29:09;;;;;;;12.32;6.70;;;;;;;;;;6342109;28;20129;-60
2023/07/08 10:32:24;;;;;;;14.10;6.88;;;;;;;;;;6313485;28;20052;-61
2023/07/08 10:35:30;;;;;;;14.10;7.28;;;;;;;;;;6345570;28;20047;-61
2023/07/08 10:39:01;;;;;;;13.27;7.20;;;;;;;;;;6345447;28;20050;-61
2023/07/08 10:42:02;;;;;;;10.63;6.60;;;;;;;;;;6344816;28;20138;-61
2023/07/08 10:45:15;;;;;;;13.98;7.28;;;;;;;;;;6344622;28;20123;-61
2023/07/08 10:48:28;;;;;;;12.88;7.10;;;;;;;;;;6345350;28;20048;-61
2023/07/08 10:51:52;;;;;;;11.48;6.88;;;;;;;;;;6345185;28;20051;-61
2023/07/08 10:55:26;;;;;;;12.05;7.30;;;;;;;;;;6344428;28;20059;-61
2023/07/08 10:58:36;;;;;;;12.25;7.40;;;;;;;;;;6343758;28;20046;-61
2023/07/08 11:01:36;;;;;;;11.00;6.90;;;;;;;;;;6344923;28;20051;-61
2023/07/08 11:05:14;;;;;;;12.73;7.27;;;;;;;;;;6345530;28;20044;-61
2023/07/08 11:08:29;;;;;;;14.45;7.53;;;;;;;;;;6345593;28;20047;-61
2023/07/08 11:11:33;;;;;;;12.07;7.50;;;;;;;;;;6343796;28;20043;-61
2023/07/08 11:14:47;;;;;;;13.18;7.43;;;;;;;;;;6344434;28;20109;-61
2023/07/08 11:18:00;;;;;;;12.00;7.82;;;;;;;;;;6344575;28;20391;-61
2023/07/08 11:21:09;;;;;;;14.18;7.25;;;;;;;;;;6344121;28;20395;-61
2023/07/08 11:24:30;;;;;;;10.15;7.03;;;;;;;;;;6342926;28;20052;-62
2023/07/08 11:27:40;;;;;;;13.00;7.82;;;;;;;;;;6344702;28;20052;-61
2023/07/08 11:30:42;;;;;;;14.77;7.47;;;;;;;;;;6344420;28;20172;-61
2023/07/08 11:33:44;;;;;;;13.05;7.60;;;;;;;;;;6343786;28;20404;-61
2023/07/08 11:36:46;;;;;;;12.85;7.50;;;;;;;;;;6343082;28;20052;-61
2023/07/08 11:39:54;;;;;;;12.85;7.45;;;;;;;;;;6343790;28;20490;-61
2023/07/08 11:43:02;;;;;;;12.85;8.07;;;;;;;;;;6343963;28;20066;-61
2023/07/08 11:46:08;;;;;;;15.18;7.53;;;;;;;;;;6342946;28;20478;-61
2023/07/08 11:49:14;;;;;;;15.25;7.57;;;;;;;;;;6343795;28;20055;-61
2023/07/08 11:52:18;;;;;;;10.93;7.60;;;;;;;;;;6343921;28;20047;-61
2023/07/08 11:55:35;;;;;;;12.77;7.72;;;;;;;;;;6342974;28;20055;-61
2023/07/08 11:59:06;;;;;;;12.60;7.30;;;;;;;;;;6342379;28;20059;-61
2023/07/08 12:02:20;;;;;;;14.37;8.03;;;;;;;;;;6343188;28;20151;-61
2023/07/08 12:05:36;;;;;;;15.30;7.93;;;;;;;;;;6343747;28;20287;-61
2023/07/08 12:08:40;;;;;;;13.35;7.40;;;;;;;;;;6343166;28;20471;-61
2023/07/08 12:11:44;;;;;;;13.63;7.47;;;;;;;;;;6342085;28;20069;-61
2023/07/08 12:14:45;;;;;;;11.85;7.68;;;;;;;;;;6343639;28;20070;-61
2023/07/08 12:17:47;;;;;;;10.47;7.13;;;;;;;;;;6343461;28;20413;-61
2023/07/08 12:21:00;;;;;;;11.38;6.95;;;;;;;;;;6341826;28;20062;-61
2023/07/08 12:24:06;;;;;;;13.30;7.47;;;;;;;;;;6342576;28;20374;-61
2023/07/08 12:27:09;;;;;;;12.90;7.57;;;;;;;;;;6342708;28;20054;-61
2023/07/08 12:30:11;;;;;;;12.18;7.53;;;;;;;;;;6342845;28;20364;-61
2023/07/08 12:33:18;;;;;;;12.10;7.50;;;;;;;;;;6341224;28;20180;-61
2023/07/08 12:36:26;;;;;;;11.05;7.78;;;;;;;;;;6343320;28;20513;-61
2023/07/08 12:39:34;;;;;;;13.07;7.40;;;;;;;;;;6343149;28;20055;-61
2023/07/08 12:42:34;;;;;;;11.50;7.50;;;;;;;;;;6341925;28;20048;-61
2023/07/08 12:45:36;;;;;;;11.43;7.15;;;;;;;;;;6341873;28;20497;-61
2023/07/08 12:48:38;;;;;;;11.43;7.55;;;;;;;;;;6342750;28;20130;-61
2023/07/08 12:51:43;;;;;;;13.20;7.40;;;;;;;;;;6342234;28;20043;-61
2023/07/08 12:54:43;;;;;;;11.77;7.18;;;;;;;;;;6340673;28;20101;-61
2023/07/08 12:57:47;;;;;;;10.55;7.07;;;;;;;;;;6342410;28;20051;-61
2023/07/08 13:00:48;;;;;;;11.13;6.97;;;;;;;;;;6341915;28;20051;-61
2023/07/08 13:03:52;;;;;;;11.98;7.50;;;;;;;;;;6340995;28;20054;-61
2023/07/08 13:06:53;;;;;;;14.95;7.57;;;;;;;;;;6342098;28;20615;-61
2023/07/08 13:09:54;;;;;;;12.85;7.20;;;;;;;;;;6342216;28;20427;-61
2023/07/08 13:13:02;;;;;;;11.13;6.93;;;;;;;;;;6341748;28;20437;-61
2023/07/08 13:16:03;;;;;;;12.10;7.43;;;;;;;;;;6341305;28;20050;-61
2023/07/08 13:19:04;;;;;;;9.88;7.00;;;;;;;;;;6342277;28;20100;-61
2023/07/08 13:22:08;;;;;;;13.02;7.25;;;;;;;;;;6342278;28;20048;-61
2023/07/08 13:25:14;;;;;;;10.90;7.28;;;;;;;;;;6321931;28;20043;-61
2023/07/08 13:28:24;;;;;;;11.68;7.43;;;;;;;;;;6342562;28;20047;-61
2023/07/08 13:31:32;;;;;;;10.60;7.50;;;;;;;;;;6342276;28;20641;-61
2023/07/08 13:34:33;;;;;;;12.27;7.20;;;;;;;;;;6341279;28;20068;-61
2023/07/08 13:37:35;;;;;;;10.25;6.60;;;;;;;;;;6341490;28;20059;-61
2023/07/08 13:40:36;;;;;;;11.48;7.28;;;;;;;;;;6342211;28;20506;-61
2023/07/08 13:43:40;;;;;;;11.25;6.70;;;;;;;;;;6342340;28;20050;-61
2023/07/08 13:46:44;;;;;;;11.43;6.55;;;;;;;;;;6340820;28;20048;-61
2023/07/08 13:49:48;;;;;;;9.98;6.80;;;;;;;;;;6341934;28;20505;-61
2023/07/08 13:52:54;;;;;;;10.70;7.07;;;;;;;;;;6341655;28;20058;-61
2023/07/08 13:56:01;;;;;;;9.57;6.30;;;;;;;;;;6341297;28;20052;-61
2023/07/08 13:59:10;;;;;;;11.70;6.30;;;;;;;;;;6341040;28;20138;-61
2023/07/08 14:02:19;;;;;;;9.38;6.20;;;;;;;;;;6341684;28;20044;-61
2023/07/08 14:05:21;;;;;;;10.73;6.00;;;;;;;;;;6346380;28;20050;-61
2023/07/08 14:08:22;;;;;;;;;;;;;;;;;;6345687;28;20046;-61
2023/07/08 14:11:23;;;;;;;9.05;6.03;;;;;;;;;;6346196;28;19924;-61
2023/07/08 14:14:23;;;;;;;10.35;6.57;;;;;;;;;;6346522;28;20105;-61
2023/07/08 14:17:26;;;;;;;10.88;6.25;;;;;;;;;;6345019;28;20087;-61
2023/07/08 14:20:29;;;;;;;10.55;6.38;;;;;;;;;;6345653;28;20044;-61
2023/07/08 14:23:30;;;;;;;9.57;5.95;;;;;;;;;;6345826;28;20372;-61
2023/07/08 14:26:30;;;;;;;8.40;6.03;;;;;;;;;;6345348;28;20055;-61
2023/07/08 14:29:31;;;;;;;8.70;6.25;;;;;;;;;;6344785;28;20047;-61
2023/07/08 14:32:32;;;;;;;10.60;6.18;;;;;;;;;;6345579;28;20403;-61
2023/07/08 14:35:33;;;;;;;9.85;6.28;;;;;;;;;;6346278;28;20039;-61
2023/07/08 14:38:33;;;;;;;10.25;6.45;;;;;;;;;;6344011;28;20094;-61
2023/07/08 14:41:34;;;;;;;9.25;6.40;;;;;;;;;;6345660;28;20143;-61
2023/07/08 14:44:36;;;;;;;11.60;6.23;;;;;;;;;;6345867;28;20047;-61
2023/07/08 14:47:36;;;;;;;11.85;8.13;;;;;;;;;;6344785;28;20286;-61
2023/07/08 14:50:37;;;;;;;10.30;6.47;;;;;;;;;;6345689;28;20047;-61
2023/07/08 14:53:38;;;;;;;10.98;6.38;;;;;;;;;;6345213;28;20058;-61
2023/07/08 14:56:40;;;;;;;10.30;6.63;;;;;;;;;;6344701;28;20044;-61
2023/07/08 14:59:41;;;;;;;8.50;6.50;;;;;;;;;;6344384;28;20287;-61
2023/07/08 15:02:43;;;;;;;;;;;;;;;;;;6345500;28;20543;-61
2023/07/08 15:05:44;;;;;;;9.95;6.65;;;;;;;;;;6344829;28;19963;-61
2023/07/08 15:08:44;;;;;;;;;;;;;;;;;;6343672;28;20043;-61
2023/07/08 15:11:46;;;;;;;14.40;6.63;;;;;;;;;;6345235;28;19923;-61
2023/07/08 15:14:46;;;;;;;;;;;;;;;;;;6345124;28;20146;-61
2023/07/08 15:17:47;;;;;;;10.93;6.70;;;;;;;;;;6343761;28;20442;-61
2023/07/08 15:20:47;;;;;;;9.73;6.90;;;;;;;;;;6344041;28;20287;-61
2023/07/08 15:23:48;;;;;;;;;;;;;;;;;;6345141;28;20059;-61
2023/07/08 15:26:49;;;;;;;10.50;7.00;;;;;;;;;;6343547;28;20267;-61
2023/07/08 15:29:50;;;;;;;12.05;6.80;;;;;;;;;;6343566;28;20040;-61
2023/07/08 15:32:51;;;;;;;;;;;;;;;;;;6344816;28;20131;-61
2023/07/08 15:35:52;;;;;;;9.15;6.60;;;;;;;;;;6344273;28;20298;-61
2023/07/08 15:38:53;;;;;;;11.75;6.95;;;;;;;;;;6342675;28;20136;-62
2023/07/08 15:41:53;;;;;;;;;;;;;;;;;;6344435;28;20084;-61
2023/07/08 15:44:54;;;;;;;11.33;7.27;;;;;;;;;;6343763;28;20282;-61
2023/07/08 15:47:55;;;;;;;9.70;7.38;;;;;;;;;;6342557;28;20043;-61
2023/07/08 15:50:55;;;;;;;;;;;;;;;;;;6344338;28;20043;-59
2023/07/08 15:53:56;;;;;;;11.32;6.90;;;;;;;;;;6344110;28;20010;-61
2023/07/08 15:56:56;;;;;;;10.48;6.97;;;;;;;;;;6343319;28;20387;-62
2023/07/08 15:59:57;;;;;;;12.13;7.47;;;;;;;;;;6343205;28;20044;-61
2023/07/08 16:03:05;;;;;;;12.07;7.30;;;;;;;;;;6343831;28;20413;-62
2023/07/08 16:06:08;;;;;;;14.45;6.80;;;;;;;;;;6343324;28;20047;-61
2023/07/08 16:09:09;;;;;;;10.27;7.03;;;;;;;;;;6342136;28;20044;-60
2023/07/08 16:12:11;;;;;;;;;;;;;;;;;;6344062;28;20047;-61
2023/07/08 16:15:34;;;;;;;15.32;7.05;;;;;;;;;;6343240;28;20362;-61
2023/07/08 16:18:36;;;;;;;13.40;6.85;;;;;;;;;;6342595;28;20078;-61
2023/07/08 16:21:37;;;;;;;10.93;6.70;;;;;;;;;;6342124;28;20497;-61
2023/07/08 16:24:38;;;;;;;10.27;6.70;;;;;;;;;;6343210;28;20099;-61
2023/07/08 16:27:38;;;;;;;;;;;;;;;;;;6342815;28;20052;-61
2023/07/08 16:30:39;;;;;;;12.57;6.60;;;;;;;;;;6342235;28;20058;-61
2023/07/08 16:33:40;;;;;;;;;;;;;;;;;;6344105;28;20040;-61
2023/07/08 16:36:41;;;;;;;10.98;6.85;;;;;;;;;;6343401;28;20011;-61
2023/07/08 16:39:41;;;;;;;;;;;;;;;;;;6341144;28;20051;-61
2023/07/08 16:42:44;;;;;;;11.60;6.90;;;;;;;;;;6342768;28;19924;-61
2023/07/08 16:45:45;;;;;;;10.60;6.40;;;;;;;;;;6342469;28;20490;-61
2023/07/08 16:48:46;;;;;;;12.45;6.50;;;;;;;;;;6342567;28;20044;-61
2023/07/08 16:51:47;;;;;;;;;;;;;;;;;;6342937;28;20513;-61
2023/07/08 16:54:47;;;;;;;8.83;6.40;;;;;;;;;;6342888;28;19939;-61
2023/07/08 16:57:48;;;;;;;;;;;;;;;;;;6343696;28;20058;-61
2023/07/08 17:00:49;;;;;;;13.00;7.50;;;;;;;;;;6340983;28;20004;-61
2023/07/08 17:03:52;;;;;;;10.27;7.30;;;;;;;;;;6342142;28;20135;-61
2023/07/08 17:06:53;;;;;;;8.98;6.88;;;;;;;;;;6342057;28;20055;-61
2023/07/08 17:09:53;;;;;;;;;;;;;;;;;;6341141;28;20559;-61
2023/07/08 17:12:54;;;;;;;9.33;6.73;;;;;;;;;;6342031;28;19976;-61
2023/07/08 17:15:55;;;;;;;;;;;;;;;;;;6342474;28;20044;-62
2023/07/08 17:18:56;;;;;;;9.17;6.73;;;;;;;;;;6341625;28;20331;-61
2023/07/08 17:21:57;;;;;;;11.35;7.50;;;;;;;;;;6341008;28;20052;-61
2023/07/08 17:24:57;;;;;;;;;;;;;;;;;;6342781;28;20452;-61
2023/07/08 17:27:58;;;;;;;11.53;6.70;;;;;;;;;;6341806;28;19920;-61
2023/07/08 17:30:59;;;;;;;11.90;6.55;;;;;;;;;;6340554;28;20146;-61
2023/07/08 17:34:02;;;;;;;;;;;;;;;;;;6342867;28;20052;-61
2023/07/08 17:37:03;;;;;;;13.77;6.93;;;;;;;;;;6343339;28;19920;-61
2023/07/08 17:40:03;;;;;;;;;;;;;;;;;;6346305;28;20067;-61
2023/07/08 17:43:04;;;;;;;12.23;7.20;;;;;;;;;;6346803;28;19924;-61
2023/07/08 17:46:11;;;;;;;13.20;7.30;;;;;;;;;;6347358;28;20399;-61
2023/07/08 17:49:13;;;;;;;12.48;7.32;;;;;;;;;;6346888;28;20058;-60
2023/07/08 17:52:13;;;;;;;13.15;8.38;;;;;;;;;;6346279;28;20063;-61
2023/07/08 17:55:15;;;;;;;13.13;8.05;;;;;;;;;;6347392;28;20146;-61
2023/07/08 17:58:17;;;;;;;12.40;7.68;;;;;;;;;;6346363;28;20120;-61
2023/07/08 18:01:18;;;;;;;14.68;8.98;;;;;;;;;;6344649;28;20066;-61
2023/07/08 18:04:19;;;;;;;13.43;9.13;;;;;;;;;;6346035;28;20043;-61